Time;durP1;ratioP1;P1;durP2;ratioP2;P2;SDS_P1;SDS_P2;PMS_P1;PMS_P2;Temp;Humidity;BMP_temperature;BMP_pressure;BME280_temperature;BME280_humidity;BME280_pressure;Samples;Min_cycle;Max_cycle;Signal;HPM_P1;HPM_P2
2021/09/15 00:01:38;;;;;;;4.55;4.13;;;;;;;;;;5095248;28;20506;-46
2021/09/15 00:04:04;;;;;;;4.65;4.25;;;;;;;;;;5095132;28;20196;-46
2021/09/15 00:06:30;;;;;;;3.60;3.28;;;;;;;;;;5085093;28;20341;-46
2021/09/15 00:08:56;;;;;;;3.97;3.53;;;;;;;;;;5075151;28;20183;-46
2021/09/15 00:11:23;;;;;;;4.40;4.00;;;;;;;;;;5075425;28;20193;-46
2021/09/15 00:13:49;;;;;;;4.20;3.80;;;;;;;;;;5081456;28;20180;-46
2021/09/15 00:16:15;;;;;;;4.10;3.72;;;;;;;;;;5081755;28;20174;-46
2021/09/15 00:18:41;;;;;;;3.67;3.38;;;;;;;;;;5093973;28;20431;-46
2021/09/15 00:21:07;;;;;;;4.00;3.60;;;;;;;;;;5082982;28;20548;-46
2021/09/15 00:23:33;;;;;;;3.50;3.20;;;;;;;;;;5095077;28;20166;-46
2021/09/15 00:25:59;;;;;;;4.03;3.65;;;;;;;;;;5093707;28;20170;-46
2021/09/15 00:28:25;;;;;;;4.15;3.75;;;;;;;;;;5093924;28;20248;-46
2021/09/15 00:30:51;;;;;;;4.15;3.75;;;;;;;;;;5092827;28;20205;-46
2021/09/15 00:33:17;;;;;;;4.25;3.55;;;;;;;;;;5075280;28;20236;-46
2021/09/15 00:35:43;;;;;;;4.30;3.90;;;;;;;;;;5084800;28;20181;-46
2021/09/15 00:38:09;;;;;;;4.53;4.05;;;;;;;;;;5101912;28;20568;-46
2021/09/15 00:40:35;;;;;;;3.53;3.22;;;;;;;;;;5091011;28;20182;-46
2021/09/15 00:43:01;;;;;;;6.55;3.58;;;;;;;;;;5093952;28;20201;-47
2021/09/15 00:45:27;;;;;;;4.50;3.67;;;;;;;;;;5085315;28;20190;-46
2021/09/15 00:47:53;;;;;;;3.72;3.42;;;;;;;;;;5087418;28;20206;-46
2021/09/15 00:50:19;;;;;;;3.60;3.30;;;;;;;;;;5085047;28;20175;-46
2021/09/15 00:52:45;;;;;;;7.53;4.10;;;;;;;;;;5074251;28;20170;-46
2021/09/15 00:55:12;;;;;;;3.80;3.50;;;;;;;;;;5088066;28;20189;-46
2021/09/15 00:57:38;;;;;;;3.75;3.45;;;;;;;;;;5093257;28;20177;-46
2021/09/15 01:00:04;;;;;;;3.90;3.60;;;;;;;;;;5093568;28;20223;-46
2021/09/15 01:02:31;;;;;;;4.03;3.20;;;;;;;;;;5093016;28;20209;-46
2021/09/15 01:04:58;;;;;;;3.97;3.67;;;;;;;;;;5093042;28;20209;-46
2021/09/15 01:07:24;;;;;;;3.85;3.55;;;;;;;;;;5093297;28;20268;-46
2021/09/15 01:09:50;;;;;;;3.45;3.20;;;;;;;;;;5089614;28;20171;-46
2021/09/15 01:12:16;;;;;;;3.38;3.08;;;;;;;;;;5091810;28;20186;-46
2021/09/15 01:14:42;;;;;;;4.97;3.78;;;;;;;;;;5093274;28;20184;-46
2021/09/15 01:17:08;;;;;;;3.65;3.33;;;;;;;;;;5091773;28;20561;-46
2021/09/15 01:19:34;;;;;;;3.85;3.40;;;;;;;;;;5093328;28;20177;-46
2021/09/15 01:22:01;;;;;;;3.42;3.13;;;;;;;;;;5092039;28;20190;-46
2021/09/15 01:24:29;;;;;;;4.28;3.67;;;;;;;;;;5092046;28;20182;-46
2021/09/15 01:26:56;;;;;;;3.60;3.30;;;;;;;;;;5073425;28;20560;-46
2021/09/15 01:29:26;;;;;;;3.92;3.58;;;;;;;;;;5073245;28;20568;-47
2021/09/15 01:32:06;;;;;;;4.25;3.38;;;;;;;;;;5087741;28;20186;-46
2021/09/15 01:34:37;;;;;;;3.53;3.22;;;;;;;;;;5089358;28;20256;-46
2021/09/15 01:37:03;;;;;;;3.55;3.25;;;;;;;;;;5093587;28;20170;-46
2021/09/15 01:39:29;;;;;;;3.53;3.17;;;;;;;;;;5102761;28;20181;-46
2021/09/15 01:42:00;;;;;;;3.40;2.85;;;;;;;;;;5073404;28;20209;-46
2021/09/15 01:44:35;;;;;;;3.70;3.40;;;;;;;;;;5073559;28;20265;-46
2021/09/15 01:47:01;;;;;;;3.72;3.25;;;;;;;;;;5081613;28;20250;-46
2021/09/15 01:49:31;;;;;;;3.83;3.45;;;;;;;;;;5092529;28;20299;-46
2021/09/15 01:51:58;;;;;;;3.53;3.22;;;;;;;;;;5093172;28;20182;-46
2021/09/15 01:54:24;;;;;;;3.55;3.25;;;;;;;;;;5093234;28;20172;-46
2021/09/15 01:56:51;;;;;;;4.95;3.50;;;;;;;;;;5091605;28;20391;-46
2021/09/15 01:59:17;;;;;;;3.30;3.00;;;;;;;;;;5091715;28;20158;-46
2021/09/15 02:01:43;;;;;;;3.40;3.10;;;;;;;;;;5092575;28;20296;-46
2021/09/15 02:04:09;;;;;;;2.97;2.78;;;;;;;;;;5092963;28;20452;-46
2021/09/15 02:06:35;;;;;;;3.40;3.20;;;;;;;;;;5078882;28;20178;-46
2021/09/15 02:09:02;;;;;;;3.05;2.85;;;;;;;;;;5072567;28;20178;-46
2021/09/15 02:11:28;;;;;;;3.83;3.45;;;;;;;;;;5086936;28;20520;-46
2021/09/15 02:13:54;;;;;;;3.03;2.72;;;;;;;;;;5093095;28;20206;-46
2021/09/15 02:16:20;;;;;;;3.00;2.80;;;;;;;;;;5092679;28;20219;-46
2021/09/15 02:18:46;;;;;;;3.50;3.20;;;;;;;;;;5096490;28;20178;-46
2021/09/15 02:21:12;;;;;;;3.85;3.45;;;;;;;;;;5095181;28;20181;-46
2021/09/15 02:23:38;;;;;;;3.78;3.47;;;;;;;;;;5097208;28;20525;-46
2021/09/15 02:26:04;;;;;;;3.22;2.95;;;;;;;;;;5096546;28;20174;-46
2021/09/15 02:28:30;;;;;;;4.95;3.28;;;;;;;;;;5096536;28;20166;-46
2021/09/15 02:30:56;;;;;;;3.65;3.05;;;;;;;;;;5089391;28;20240;-46
2021/09/15 02:33:22;;;;;;;3.60;3.30;;;;;;;;;;5092026;28;20178;-45
2021/09/15 02:35:48;;;;;;;3.58;3.28;;;;;;;;;;5096738;28;20184;-46
2021/09/15 02:38:14;;;;;;;3.88;3.50;;;;;;;;;;5103087;28;20186;-46
2021/09/15 02:40:40;;;;;;;3.75;3.45;;;;;;;;;;5102515;28;20250;-46
2021/09/15 02:43:06;;;;;;;2.92;2.72;;;;;;;;;;5096742;28;20216;-46
2021/09/15 02:45:32;;;;;;;3.38;3.10;;;;;;;;;;5096185;28;20188;-46
2021/09/15 02:47:58;;;;;;;3.60;3.30;;;;;;;;;;5095498;28;20182;-46
2021/09/15 02:50:24;;;;;;;4.32;3.13;;;;;;;;;;5094090;28;20261;-46
2021/09/15 02:52:50;;;;;;;3.33;3.13;;;;;;;;;;5076498;28;20339;-46
2021/09/15 02:55:16;;;;;;;3.45;3.15;;;;;;;;;;5082891;28;20186;-46
2021/09/15 02:57:42;;;;;;;3.33;3.00;;;;;;;;;;5095434;28;20557;-46
2021/09/15 03:00:08;;;;;;;3.17;2.90;;;;;;;;;;5090512;28;20180;-46
2021/09/15 03:02:34;;;;;;;3.58;3.28;;;;;;;;;;5095683;28;20202;-46
2021/09/15 03:05:00;;;;;;;3.05;2.85;;;;;;;;;;5096584;28;20166;-46
2021/09/15 03:07:26;;;;;;;4.72;3.40;;;;;;;;;;5094528;28;20276;-46
2021/09/15 03:09:52;;;;;;;3.70;3.10;;;;;;;;;;5096233;28;20174;-46
2021/09/15 03:12:18;;;;;;;3.40;3.10;;;;;;;;;;5095439;28;20185;-46
2021/09/15 03:14:44;;;;;;;3.42;3.15;;;;;;;;;;5083617;28;20190;-46
2021/09/15 03:17:10;;;;;;;2.90;2.70;;;;;;;;;;5082188;28;20198;-46
2021/09/15 03:19:36;;;;;;;2.97;2.78;;;;;;;;;;5075507;28;20191;-46
2021/09/15 03:22:02;;;;;;;3.00;2.80;;;;;;;;;;5090635;28;20190;-46
2021/09/15 03:24:28;;;;;;;3.15;2.95;;;;;;;;;;5095528;28;20809;-46
2021/09/15 03:26:54;;;;;;;3.20;3.00;;;;;;;;;;5095282;28;20263;-46
2021/09/15 03:29:20;;;;;;;3.67;3.38;;;;;;;;;;5094933;28;20538;-46
2021/09/15 03:31:46;;;;;;;3.20;2.97;;;;;;;;;;5095058;28;20178;-46
2021/09/15 03:34:12;;;;;;;3.20;2.90;;;;;;;;;;5095966;28;20170;-46
2021/09/15 03:36:38;;;;;;;2.80;2.60;;;;;;;;;;5095269;28;20181;-46
2021/09/15 03:39:04;;;;;;;2.70;2.50;;;;;;;;;;5104760;28;20267;-46
2021/09/15 03:41:31;;;;;;;3.08;2.63;;;;;;;;;;5087406;28;20189;-46
2021/09/15 03:43:57;;;;;;;2.95;2.67;;;;;;;;;;5095297;28;20174;-46
2021/09/15 03:46:23;;;;;;;3.40;3.10;;;;;;;;;;5095598;28;20162;-46
2021/09/15 03:48:49;;;;;;;4.20;3.10;;;;;;;;;;5094871;28;20407;-46
2021/09/15 03:51:15;;;;;;;3.55;3.25;;;;;;;;;;5087720;28;20186;-46
2021/09/15 03:53:41;;;;;;;3.33;3.03;;;;;;;;;;5085325;28;20182;-46
2021/09/15 03:56:07;;;;;;;3.17;2.88;;;;;;;;;;5095436;28;20560;-46
2021/09/15 03:58:33;;;;;;;3.33;2.95;;;;;;;;;;5094250;28;20197;-46
2021/09/15 04:00:59;;;;;;;3.30;2.95;;;;;;;;;;5090783;28;20174;-46
2021/09/15 04:03:24;;;;;;;3.45;3.15;;;;;;;;;;5078469;28;20601;-46
2021/09/15 04:05:50;;;;;;;9.48;4.47;;;;;;;;;;5077366;28;20204;-46
2021/09/15 04:08:16;;;;;;;10.80;4.20;;;;;;;;;;5094497;28;20194;-46
2021/09/15 04:10:42;;;;;;;12.90;5.75;;;;;;;;;;5094339;28;20175;-46
2021/09/15 04:13:08;;;;;;;13.98;5.57;;;;;;;;;;5094082;28;20409;-46
2021/09/15 04:15:34;;;;;;;17.90;4.88;;;;;;;;;;5074641;28;20197;-46
2021/09/15 04:18:00;;;;;;;11.90;4.20;;;;;;;;;;5084291;28;20198;-46
2021/09/15 04:20:26;;;;;;;7.60;3.97;;;;;;;;;;5093757;28;20174;-46
2021/09/15 04:22:52;;;;;;;9.00;4.28;;;;;;;;;;5094687;28;20197;-45
2021/09/15 04:33:33;;;;;;;7.10;3.80;;;;;;;;;;5094697;28;20239;-46
2021/09/15 04:35:59;;;;;;;6.05;3.78;;;;;;;;;;5080867;28;20192;-46
2021/09/15 04:38:24;;;;;;;5.22;3.30;;;;;;;;;;5095816;28;20189;-46
2021/09/15 04:40:51;;;;;;;7.97;3.85;;;;;;;;;;5093870;28;20179;-46
2021/09/15 04:43:17;;;;;;;6.75;3.85;;;;;;;;;;5080823;28;20588;-46
2021/09/15 04:45:43;;;;;;;5.32;3.75;;;;;;;;;;5083128;28;20186;-46
2021/09/15 04:48:09;;;;;;;7.05;3.47;;;;;;;;;;5078811;28;20182;-46
2021/09/15 04:50:34;;;;;;;6.75;3.75;;;;;;;;;;5087525;28;20175;-46
2021/09/15 04:53:00;;;;;;;5.07;3.70;;;;;;;;;;5080488;28;20236;-46
2021/09/15 04:55:29;;;;;;;6.68;3.80;;;;;;;;;;5074194;28;20705;-46
2021/09/15 04:57:55;;;;;;;5.35;3.92;;;;;;;;;;5082634;28;20185;-46
2021/09/15 05:00:21;;;;;;;5.45;3.70;;;;;;;;;;5091268;28;20204;-46
2021/09/15 05:02:47;;;;;;;5.82;3.60;;;;;;;;;;5089328;28;20205;-46
2021/09/15 05:05:13;;;;;;;5.88;3.67;;;;;;;;;;5083949;28;20193;-46
2021/09/15 05:07:39;;;;;;;6.70;3.78;;;;;;;;;;5092392;28;20224;-46
2021/09/15 05:10:05;;;;;;;5.05;3.70;;;;;;;;;;5093607;28;20439;-46
2021/09/15 05:12:31;;;;;;;5.43;3.28;;;;;;;;;;5093535;28;20568;-46
2021/09/15 05:14:58;;;;;;;4.38;3.42;;;;;;;;;;5077699;28;20194;-47
2021/09/15 05:17:24;;;;;;;3.88;3.58;;;;;;;;;;5090033;28;20180;-46
2021/09/15 05:19:50;;;;;;;4.82;3.53;;;;;;;;;;5093701;28;20174;-46
2021/09/15 05:22:16;;;;;;;3.97;3.53;;;;;;;;;;5086498;28;20585;-46
2021/09/15 05:24:42;;;;;;;6.07;3.35;;;;;;;;;;5093656;28;20184;-46
2021/09/15 05:27:08;;;;;;;4.78;3.08;;;;;;;;;;5093503;28;20486;-46
2021/09/15 05:29:35;;;;;;;6.60;3.67;;;;;;;;;;5092145;28;20166;-47
2021/09/15 05:32:01;;;;;;;5.70;3.70;;;;;;;;;;5073655;28;20175;-47
2021/09/15 05:34:27;;;;;;;4.50;3.22;;;;;;;;;;5073388;28;20241;-45
2021/09/15 05:36:53;;;;;;;3.75;3.33;;;;;;;;;;5086737;28;20234;-46
2021/09/15 05:39:19;;;;;;;6.05;3.20;;;;;;;;;;5104755;28;20209;-46
2021/09/15 05:41:45;;;;;;;4.57;3.45;;;;;;;;;;5093945;28;20472;-46
2021/09/15 05:44:11;;;;;;;4.38;3.22;;;;;;;;;;5092759;28;20193;-46
2021/09/15 05:46:37;;;;;;;3.72;3.42;;;;;;;;;;5093831;28;20222;-46
2021/09/15 05:49:03;;;;;;;3.40;3.10;;;;;;;;;;5092779;28;20491;-46
2021/09/15 05:51:30;;;;;;;4.28;3.00;;;;;;;;;;5086357;28;20281;-46
2021/09/15 05:53:56;;;;;;;3.63;3.33;;;;;;;;;;5087020;28;20520;-46
2021/09/15 05:56:22;;;;;;;3.90;3.45;;;;;;;;;;5097203;28;20182;-46
2021/09/15 05:58:48;;;;;;;3.70;3.30;;;;;;;;;;5097191;28;20178;-46
2021/09/15 06:01:14;;;;;;;3.60;3.30;;;;;;;;;;5097029;28;20174;-46
2021/09/15 06:03:40;;;;;;;3.92;3.53;;;;;;;;;;5097684;28;20596;-46
2021/09/15 06:06:06;;;;;;;3.60;3.10;;;;;;;;;;5096607;28;20270;-46
2021/09/15 06:08:32;;;;;;;5.22;3.38;;;;;;;;;;5095227;28;20193;-46
2021/09/15 06:10:58;;;;;;;5.18;3.35;;;;;;;;;;5097079;28;20178;-46
2021/09/15 06:13:24;;;;;;;9.07;3.75;;;;;;;;;;5097333;28;20182;-46
2021/09/15 06:15:50;;;;;;;5.53;3.72;;;;;;;;;;5097182;28;20177;-46
2021/09/15 06:18:16;;;;;;;4.95;3.53;;;;;;;;;;5096507;28;20193;-46
2021/09/15 06:20:42;;;;;;;4.22;3.65;;;;;;;;;;5096485;28;20178;-46
2021/09/15 06:23:10;;;;;;;4.18;3.78;;;;;;;;;;5097419;28;20433;-46
2021/09/15 06:25:37;;;;;;;4.90;3.80;;;;;;;;;;5096803;28;20530;-46
2021/09/15 06:28:03;;;;;;;5.45;3.65;;;;;;;;;;5096997;28;20511;-46
2021/09/15 06:30:29;;;;;;;3.33;3.00;;;;;;;;;;5087833;28;20240;-46
2021/09/15 06:32:55;;;;;;;4.68;3.60;;;;;;;;;;5080769;28;20185;-45
2021/09/15 06:35:21;;;;;;;4.38;3.33;;;;;;;;;;5096898;28;20178;-46
2021/09/15 06:37:47;;;;;;;4.13;3.72;;;;;;;;;;5103319;28;20200;-46
2021/09/15 06:40:13;;;;;;;4.13;3.35;;;;;;;;;;5092026;28;20193;-46
2021/09/15 06:42:39;;;;;;;3.55;3.17;;;;;;;;;;5076762;28;20267;-46
2021/09/15 06:45:06;;;;;;;4.35;3.47;;;;;;;;;;5081931;28;20819;-46
2021/09/15 06:47:32;;;;;;;4.63;3.97;;;;;;;;;;5083324;28;20183;-46
2021/09/15 06:49:58;;;;;;;4.97;3.38;;;;;;;;;;5076623;28;20265;-46
2021/09/15 06:52:23;;;;;;;3.58;3.25;;;;;;;;;;5076513;28;20266;-46
2021/09/15 06:54:49;;;;;;;4.68;3.42;;;;;;;;;;5090325;28;20174;-46
2021/09/15 06:57:16;;;;;;;3.40;3.10;;;;;;;;;;5095576;28;20839;-46
2021/09/15 06:59:42;;;;;;;3.70;3.15;;;;;;;;;;5095613;28;20218;-46
2021/09/15 07:02:08;;;;;;;3.75;3.40;;;;;;;;;;5075890;28;20289;-46
2021/09/15 07:04:34;;;;;;;3.88;3.50;;;;;;;;;;5075648;28;20261;-46
2021/09/15 07:07:00;;;;;;;4.20;3.50;;;;;;;;;;5077074;28;20185;-46
2021/09/15 07:09:26;;;;;;;3.80;3.50;;;;;;;;;;5076803;28;20723;-46
2021/09/15 07:11:52;;;;;;;3.38;3.08;;;;;;;;;;5076309;28;20261;-46
2021/09/15 07:14:18;;;;;;;3.40;3.10;;;;;;;;;;5086148;28;20234;-46
2021/09/15 07:16:44;;;;;;;3.80;3.40;;;;;;;;;;5086664;28;20183;-46
2021/09/15 07:19:10;;;;;;;3.88;3.47;;;;;;;;;;5075544;28;20914;-46
2021/09/15 07:21:36;;;;;;;4.10;3.70;;;;;;;;;;5080574;28;20209;-46
2021/09/15 07:24:02;;;;;;;3.90;3.50;;;;;;;;;;5095369;28;20498;-46
2021/09/15 07:26:28;;;;;;;3.53;3.22;;;;;;;;;;5096018;28;20584;-46
2021/09/15 07:28:54;;;;;;;3.75;3.28;;;;;;;;;;5077078;28;20185;-46
2021/09/15 07:31:20;;;;;;;3.72;3.42;;;;;;;;;;5075765;28;20167;-46
2021/09/15 07:33:46;;;;;;;6.55;3.58;;;;;;;;;;5075774;28;20175;-45
2021/09/15 07:36:12;;;;;;;3.88;3.38;;;;;;;;;;5085083;28;20240;-46
2021/09/15 07:38:38;;;;;;;3.47;3.17;;;;;;;;;;5085670;28;20280;-46
2021/09/15 07:41:05;;;;;;;3.40;3.10;;;;;;;;;;5092665;28;20225;-46
2021/09/15 07:43:31;;;;;;;5.95;3.60;;;;;;;;;;5075159;28;20481;-46
2021/09/15 07:45:57;;;;;;;3.42;3.13;;;;;;;;;;5075924;28;20577;-46
2021/09/15 07:48:23;;;;;;;3.92;3.40;;;;;;;;;;5074830;28;20209;-46
2021/09/15 07:50:50;;;;;;;3.83;3.53;;;;;;;;;;5078565;28;20214;-46
2021/09/15 07:53:16;;;;;;;3.20;3.00;;;;;;;;;;5095401;28;20173;-46
2021/09/15 07:55:42;;;;;;;4.05;3.47;;;;;;;;;;5093816;28;20249;-46
2021/09/15 07:58:08;;;;;;;3.35;3.05;;;;;;;;;;5094757;28;20170;-46
2021/09/15 08:00:35;;;;;;;3.95;3.65;;;;;;;;;;5094495;28;20178;-46
2021/09/15 08:03:01;;;;;;;3.63;3.22;;;;;;;;;;5095269;28;20193;-46
2021/09/15 08:05:27;;;;;;;4.00;3.70;;;;;;;;;;5094530;28;20170;-46
2021/09/15 08:07:53;;;;;;;3.53;3.22;;;;;;;;;;5089283;28;20225;-46
2021/09/15 08:10:19;;;;;;;3.40;3.10;;;;;;;;;;5074919;28;20179;-46
2021/09/15 08:12:45;;;;;;;4.68;3.60;;;;;;;;;;5084335;28;20178;-46
2021/09/15 08:15:11;;;;;;;3.95;3.55;;;;;;;;;;5076148;28;21110;-46
2021/09/15 08:17:38;;;;;;;3.70;3.40;;;;;;;;;;5074140;28;20494;-46
2021/09/15 08:20:05;;;;;;;3.35;3.05;;;;;;;;;;5074919;28;20577;-46
2021/09/15 08:22:31;;;;;;;3.53;3.22;;;;;;;;;;5086525;28;20235;-46
2021/09/15 08:24:57;;;;;;;3.80;3.20;;;;;;;;;;5094835;28;20256;-46
2021/09/15 08:27:23;;;;;;;5.25;3.38;;;;;;;;;;5093843;28;20159;-46
2021/09/15 08:29:49;;;;;;;3.50;3.30;;;;;;;;;;5094469;28;20482;-46
2021/09/15 08:32:15;;;;;;;3.40;3.10;;;;;;;;;;5094920;28;20200;-46
2021/09/15 08:34:41;;;;;;;3.97;3.58;;;;;;;;;;5093055;28;20170;-46
2021/09/15 08:37:07;;;;;;;3.53;3.20;;;;;;;;;;5078779;28;20187;-46
2021/09/15 08:39:33;;;;;;;3.78;3.47;;;;;;;;;;5104210;28;20180;-46
2021/09/15 08:41:59;;;;;;;3.63;3.22;;;;;;;;;;5094236;28;20198;-46
2021/09/15 08:44:25;;;;;;;3.63;3.22;;;;;;;;;;5094007;28;20178;-46
2021/09/15 08:46:53;;;;;;;3.53;3.22;;;;;;;;;;5094640;28;20265;-46
2021/09/15 08:49:20;;;;;;;3.75;3.45;;;;;;;;;;5084357;28;20171;-46
2021/09/15 08:51:46;;;;;;;3.60;3.30;;;;;;;;;;5073979;28;20250;-46
2021/09/15 08:54:14;;;;;;;4.32;3.40;;;;;;;;;;5076935;28;20530;-46
2021/09/15 08:56:40;;;;;;;3.60;3.30;;;;;;;;;;5093824;28;20201;-46
2021/09/15 08:59:06;;;;;;;3.30;3.03;;;;;;;;;;5093576;28;20412;-46
2021/09/15 09:01:32;;;;;;;3.28;3.05;;;;;;;;;;5077618;28;20190;-46
2021/09/15 09:03:58;;;;;;;3.58;3.22;;;;;;;;;;5092521;28;20174;-47
2021/09/15 09:06:26;;;;;;;3.83;3.53;;;;;;;;;;5077591;28;20189;-46
2021/09/15 09:08:53;;;;;;;3.28;3.08;;;;;;;;;;5073111;28;20255;-46
2021/09/15 09:11:21;;;;;;;2.90;2.70;;;;;;;;;;5088596;28;20172;-46
2021/09/15 09:13:48;;;;;;;3.38;3.08;;;;;;;;;;5092714;28;20221;-46
2021/09/15 09:16:14;;;;;;;3.65;3.20;;;;;;;;;;5079052;28;20567;-46
2021/09/15 09:19:01;;;;;;;3.28;2.88;;;;;;;;;;5087469;28;20181;-46
2021/09/15 09:21:31;;;;;;;4.85;3.47;;;;;;;;;;5088537;28;20199;-46
2021/09/15 09:23:59;;;;;;;2.80;2.60;;;;;;;;;;5089633;28;20193;-46
2021/09/15 09:26:44;;;;;;;3.08;2.80;;;;;;;;;;5078564;28;20201;-46
2021/09/15 09:29:14;;;;;;;3.65;3.35;;;;;;;;;;5090388;28;20224;-46
2021/09/15 09:31:40;;;;;;;4.03;3.20;;;;;;;;;;5092508;28;20264;-47
2021/09/15 09:34:06;;;;;;;4.18;3.30;;;;;;;;;;5092542;28;20480;-46
2021/09/15 09:36:32;;;;;;;3.75;3.28;;;;;;;;;;5075842;28;20460;-46
2021/09/15 09:38:58;;;;;;;4.10;3.15;;;;;;;;;;5099680;28;20200;-46
2021/09/15 09:41:24;;;;;;;4.05;3.00;;;;;;;;;;5097207;28;20185;-46
2021/09/15 09:43:54;;;;;;;3.63;3.30;;;;;;;;;;5083711;28;20229;-47
2021/09/15 09:46:23;;;;;;;3.80;3.50;;;;;;;;;;5077497;28;20202;-46
2021/09/15 09:48:56;;;;;;;4.30;3.28;;;;;;;;;;5072160;28;20167;-46
2021/09/15 09:51:30;;;;;;;3.45;3.15;;;;;;;;;;5073492;28;20517;-46
2021/09/15 09:54:14;;;;;;;3.60;3.10;;;;;;;;;;5090072;28;20181;-47
2021/09/15 09:56:44;;;;;;;4.15;3.17;;;;;;;;;;5086802;28;20429;-46
2021/09/15 09:59:10;;;;;;;3.53;3.05;;;;;;;;;;5072656;28;20457;-46
2021/09/15 10:01:47;;;;;;;3.25;2.97;;;;;;;;;;5073433;28;20224;-46
2021/09/15 10:04:14;;;;;;;4.15;3.58;;;;;;;;;;5073052;28;20659;-49
2021/09/15 10:06:41;;;;;;;4.93;3.33;;;;;;;;;;5077985;28;20174;-49
2021/09/15 10:09:07;;;;;;;4.45;3.67;;;;;;;;;;5092514;28;20194;-49
2021/09/15 10:11:37;;;;;;;4.32;3.45;;;;;;;;;;5076154;28;20224;-49
2021/09/15 10:14:04;;;;;;;3.28;3.00;;;;;;;;;;5081509;28;20178;-48
2021/09/15 10:16:32;;;;;;;3.58;3.28;;;;;;;;;;5092336;28;20206;-48
2021/09/15 10:19:03;;;;;;;7.40;3.55;;;;;;;;;;5072711;28;20246;-48
2021/09/15 10:21:30;;;;;;;3.83;3.38;;;;;;;;;;5090237;28;20170;-48
2021/09/15 10:23:56;;;;;;;3.85;3.10;;;;;;;;;;5092384;28;20451;-48
2021/09/15 10:26:28;;;;;;;3.40;3.10;;;;;;;;;;5093021;28;20170;-49
2021/09/15 10:29:13;;;;;;;3.70;3.25;;;;;;;;;;5092802;28;20170;-48
2021/09/15 10:31:49;;;;;;;4.03;2.88;;;;;;;;;;5093094;28;20178;-49
2021/09/15 10:34:34;;;;;;;4.05;3.35;;;;;;;;;;5092644;28;20172;-49
2021/09/15 10:37:00;;;;;;;6.47;3.47;;;;;;;;;;5092461;28;20552;-48
2021/09/15 10:39:27;;;;;;;5.20;3.67;;;;;;;;;;5107516;28;20173;-49
2021/09/15 10:41:53;;;;;;;3.53;3.22;;;;;;;;;;5096746;28;20196;-49
2021/09/15 10:44:21;;;;;;;4.38;3.30;;;;;;;;;;5096644;28;20721;-48
2021/09/15 10:46:47;;;;;;;4.20;3.88;;;;;;;;;;5096586;28;20549;-48
2021/09/15 10:49:22;;;;;;;7.03;4.10;;;;;;;;;;5096135;28;20174;-49
2021/09/15 10:52:08;;;;;;;6.18;3.83;;;;;;;;;;5085406;28;20184;-49
2021/09/15 10:54:45;;;;;;;3.63;3.33;;;;;;;;;;5092179;28;20185;-48
2021/09/15 10:57:12;;;;;;;4.03;3.72;;;;;;;;;;5076135;28;20176;-48
2021/09/15 10:59:48;;;;;;;7.13;4.03;;;;;;;;;;5077601;28;20872;-49
2021/09/15 11:02:23;;;;;;;4.30;3.90;;;;;;;;;;5096260;28;20197;-48
2021/09/15 11:04:49;;;;;;;4.50;4.10;;;;;;;;;;5087349;28;20166;-49
2021/09/15 11:07:34;;;;;;;4.53;4.13;;;;;;;;;;5077452;28;20199;-48
2021/09/15 11:10:00;;;;;;;4.53;4.10;;;;;;;;;;5096030;28;20169;-49
2021/09/15 11:12:45;;;;;;;6.10;4.68;;;;;;;;;;5095989;28;20193;-48
2021/09/15 11:15:24;;;;;;;5.07;4.57;;;;;;;;;;5095862;28;20458;-48
2021/09/15 11:17:50;;;;;;;4.60;4.18;;;;;;;;;;5081120;28;20197;-49
2021/09/15 11:20:19;;;;;;;6.97;4.82;;;;;;;;;;5075751;28;20465;-49
2021/09/15 11:22:46;;;;;;;5.32;4.45;;;;;;;;;;5087328;28;20197;-48
2021/09/15 11:25:16;;;;;;;5.00;4.47;;;;;;;;;;5095159;28;20564;-48
2021/09/15 11:27:42;;;;;;;5.60;4.30;;;;;;;;;;5095598;28;20172;-48
2021/09/15 11:30:08;;;;;;;5.70;4.78;;;;;;;;;;5095761;28;20190;-48
2021/09/15 11:32:34;;;;;;;4.70;4.30;;;;;;;;;;5078830;28;20178;-48
2021/09/15 11:35:00;;;;;;;5.18;4.68;;;;;;;;;;5075564;28;20502;-49
2021/09/15 11:37:30;;;;;;;5.50;4.90;;;;;;;;;;5096532;28;20177;-49
2021/09/15 11:40:00;;;;;;;4.35;3.95;;;;;;;;;;5102773;28;20173;-48
2021/09/15 11:42:30;;;;;;;5.18;4.43;;;;;;;;;;5095611;28;20212;-49
2021/09/15 11:44:56;;;;;;;5.30;4.80;;;;;;;;;;5095739;28;20454;-49
2021/09/15 11:47:24;;;;;;;5.45;4.60;;;;;;;;;;5094085;28;20166;-49
2021/09/15 11:49:50;;;;;;;7.32;4.78;;;;;;;;;;5079609;28;20278;-48
2021/09/15 11:52:16;;;;;;;5.85;5.25;;;;;;;;;;5089358;28;20279;-49
2021/09/15 11:54:49;;;;;;;5.53;4.85;;;;;;;;;;5092790;28;20186;-49
2021/09/15 11:57:16;;;;;;;5.50;5.00;;;;;;;;;;5074833;28;20171;-49
2021/09/15 11:59:42;;;;;;;6.05;4.43;;;;;;;;;;5076098;28;20810;-49
2021/09/15 12:02:12;;;;;;;5.30;4.90;;;;;;;;;;5075149;28;20206;-48
2021/09/15 12:04:40;;;;;;;7.22;4.93;;;;;;;;;;5083891;28;20219;-48
2021/09/15 12:07:06;;;;;;;5.75;5.15;;;;;;;;;;5074397;28;20198;-48
2021/09/15 12:09:35;;;;;;;6.30;5.25;;;;;;;;;;5074728;28;20179;-48
2021/09/15 12:12:05;;;;;;;6.85;4.68;;;;;;;;;;5074996;28;20197;-49
2021/09/15 12:14:32;;;;;;;6.32;5.05;;;;;;;;;;5076218;28;20175;-48
2021/09/15 12:17:05;;;;;;;6.82;4.65;;;;;;;;;;5074080;28;20255;-48
2021/09/15 12:19:31;;;;;;;6.15;4.88;;;;;;;;;;5091427;28;20257;-48
2021/09/15 12:21:57;;;;;;;7.95;5.32;;;;;;;;;;5074742;28;20201;-49
2021/09/15 12:24:25;;;;;;;5.63;5.05;;;;;;;;;;5075559;28;20252;-49
2021/09/15 12:26:52;;;;;;;8.75;5.25;;;;;;;;;;5078378;28;20545;-49
2021/09/15 12:29:23;;;;;;;6.10;5.00;;;;;;;;;;5094769;28;20233;-48
2021/09/15 12:31:53;;;;;;;7.10;5.55;;;;;;;;;;5094934;28;20178;-48
2021/09/15 12:34:27;;;;;;;8.25;5.18;;;;;;;;;;5094614;28;20192;-48
2021/09/15 12:37:07;;;;;;;5.45;4.95;;;;;;;;;;5075127;28;20204;-48
2021/09/15 12:39:44;;;;;;;5.72;5.18;;;;;;;;;;5095589;28;20174;-48
2021/09/15 12:42:14;;;;;;;7.35;5.35;;;;;;;;;;5093959;28;20201;-49
2021/09/15 12:44:40;;;;;;;5.97;5.47;;;;;;;;;;5091396;28;20219;-49
2021/09/15 12:47:06;;;;;;;5.60;5.03;;;;;;;;;;5089425;28;20181;-47
2021/09/15 12:49:40;;;;;;;6.07;5.40;;;;;;;;;;5093771;28;20170;-49
2021/09/15 12:52:16;;;;;;;5.78;5.28;;;;;;;;;;5074812;28;20167;-48
2021/09/15 12:54:53;;;;;;;7.18;5.05;;;;;;;;;;5084307;28;20242;-47
2021/09/15 12:57:20;;;;;;;6.85;5.10;;;;;;;;;;5094525;28;20172;-50
2021/09/15 12:59:47;;;;;;;8.65;5.38;;;;;;;;;;5094041;28;20446;-49
2021/09/15 13:02:16;;;;;;;7.22;5.28;;;;;;;;;;5086521;28;20599;-49
2021/09/15 13:04:42;;;;;;;8.25;5.20;;;;;;;;;;5076773;28;20170;-49
2021/09/15 13:07:08;;;;;;;6.32;5.32;;;;;;;;;;5093134;28;20517;-48
2021/09/15 13:09:34;;;;;;;6.40;5.15;;;;;;;;;;5079756;28;20173;-49
2021/09/15 13:12:00;;;;;;;7.63;4.82;;;;;;;;;;5094835;28;20170;-49
2021/09/15 13:14:26;;;;;;;6.45;4.80;;;;;;;;;;5092573;28;20221;-49
2021/09/15 13:16:52;;;;;;;5.93;4.60;;;;;;;;;;5080426;28;20185;-48
2021/09/15 13:19:18;;;;;;;6.30;5.00;;;;;;;;;;5094591;28;20173;-49
2021/09/15 13:21:44;;;;;;;8.60;4.50;;;;;;;;;;5084928;28;20304;-49
2021/09/15 13:24:10;;;;;;;6.75;4.30;;;;;;;;;;5074329;28;20557;-49
2021/09/15 13:26:36;;;;;;;8.98;4.43;;;;;;;;;;5074243;28;20185;-49
2021/09/15 13:29:02;;;;;;;5.57;4.93;;;;;;;;;;5089063;28;20204;-49
2021/09/15 13:31:28;;;;;;;5.50;5.00;;;;;;;;;;5093792;28;20170;-48
2021/09/15 13:33:54;;;;;;;5.32;4.82;;;;;;;;;;5094113;28;20174;-49
2021/09/15 13:36:20;;;;;;;6.30;4.45;;;;;;;;;;5094558;28;20256;-48
2021/09/15 13:38:46;;;;;;;5.85;5.25;;;;;;;;;;5101847;28;20193;-49
2021/09/15 13:41:12;;;;;;;5.85;4.20;;;;;;;;;;5094216;28;20186;-49
2021/09/15 13:43:38;;;;;;;6.05;4.82;;;;;;;;;;5088826;28;20198;-49
2021/09/15 13:46:04;;;;;;;6.13;4.57;;;;;;;;;;5073751;28;20179;-49
2021/09/15 13:48:30;;;;;;;5.88;3.90;;;;;;;;;;5073516;28;20573;-49
2021/09/15 13:50:57;;;;;;;6.85;5.22;;;;;;;;;;5074140;28;20183;-48
2021/09/15 13:53:23;;;;;;;6.25;4.38;;;;;;;;;;5074392;28;20232;-49
2021/09/15 13:55:49;;;;;;;6.95;4.40;;;;;;;;;;5085069;28;20234;-48
2021/09/15 13:58:14;;;;;;;6.10;4.20;;;;;;;;;;5092706;28;20186;-49
2021/09/15 14:00:40;;;;;;;6.50;4.00;;;;;;;;;;5093699;28;20178;-48
2021/09/15 14:03:06;;;;;;;4.75;3.90;;;;;;;;;;5094064;28;20642;-49
2021/09/15 14:05:32;;;;;;;6.07;4.25;;;;;;;;;;5093773;28;20186;-48
2021/09/15 14:07:58;;;;;;;6.25;4.07;;;;;;;;;;5092779;28;20641;-48
2021/09/15 14:10:24;;;;;;;4.05;3.38;;;;;;;;;;5085903;28;20183;-48
2021/09/15 14:12:51;;;;;;;5.40;3.42;;;;;;;;;;5094882;28;20174;-49
2021/09/15 14:15:17;;;;;;;7.50;3.78;;;;;;;;;;5095260;28;20277;-49
2021/09/15 14:17:43;;;;;;;4.53;3.10;;;;;;;;;;5097465;28;20516;-48
2021/09/15 14:20:09;;;;;;;6.35;3.80;;;;;;;;;;5096954;28;20238;-49
2021/09/15 14:22:36;;;;;;;4.65;3.95;;;;;;;;;;5098121;28;20277;-49
2021/09/15 14:25:03;;;;;;;3.83;3.40;;;;;;;;;;5095315;28;20189;-48
2021/09/15 14:27:29;;;;;;;3.47;3.17;;;;;;;;;;5097358;28;20232;-48
2021/09/15 14:29:55;;;;;;;4.80;3.22;;;;;;;;;;5097450;28;20205;-49
2021/09/15 14:32:21;;;;;;;3.88;3.03;;;;;;;;;;5097817;28;20170;-48
2021/09/15 14:34:47;;;;;;;3.78;2.88;;;;;;;;;;5097297;28;20218;-49
2021/09/15 14:37:13;;;;;;;4.95;3.22;;;;;;;;;;5097078;28;20217;-49
2021/09/15 14:39:39;;;;;;;4.40;2.85;;;;;;;;;;5099762;28;20177;-49
2021/09/15 14:42:05;;;;;;;4.70;2.75;;;;;;;;;;5077174;28;20202;-49
2021/09/15 14:44:31;;;;;;;3.72;2.38;;;;;;;;;;5077072;28;20205;-49
2021/09/15 14:46:57;;;;;;;3.95;2.67;;;;;;;;;;5076826;28;20195;-49
2021/09/15 14:49:23;;;;;;;5.07;3.38;;;;;;;;;;5076888;28;20174;-49
2021/09/15 14:51:49;;;;;;;7.63;3.08;;;;;;;;;;5083891;28;20181;-49